sensor_id;sensor_type;location;lat;lon;timestamp;P1;durP1;ratioP1;P2;durP2;ratioP2
56181;SDS011;51963;46.052;14.544;2023-04-09T00:01:16;11.80;;;6.75;;
56181;SDS011;51963;46.052;14.544;2023-04-09T00:03:42;12.32;;;6.93;;
56181;SDS011;51963;46.052;14.544;2023-04-09T00:06:07;10.80;;;6.95;;
56181;SDS011;51963;46.052;14.544;2023-04-09T00:08:35;10.75;;;6.63;;
56181;SDS011;51963;46.052;14.544;2023-04-09T00:11:01;10.55;;;7.25;;
56181;SDS011;51963;46.052;14.544;2023-04-09T00:13:26;12.38;;;7.43;;
56181;SDS011;51963;46.052;14.544;2023-04-09T00:15:52;13.80;;;7.90;;
56181;SDS011;51963;46.052;14.544;2023-04-09T00:18:18;16.02;;;7.60;;
56181;SDS011;51963;46.052;14.544;2023-04-09T00:20:43;13.13;;;7.55;;
56181;SDS011;51963;46.052;14.544;2023-04-09T00:23:09;13.65;;;7.53;;
56181;SDS011;51963;46.052;14.544;2023-04-09T00:25:35;14.27;;;7.38;;
56181;SDS011;51963;46.052;14.544;2023-04-09T00:28:03;12.65;;;7.88;;
56181;SDS011;51963;46.052;14.544;2023-04-09T00:30:29;14.70;;;8.40;;
56181;SDS011;51963;46.052;14.544;2023-04-09T00:32:55;13.35;;;8.40;;
56181;SDS011;51963;46.052;14.544;2023-04-09T00:35:24;14.23;;;7.70;;
56181;SDS011;51963;46.052;14.544;2023-04-09T00:37:55;13.20;;;7.72;;
56181;SDS011;51963;46.052;14.544;2023-04-09T00:40:21;12.85;;;7.47;;
56181;SDS011;51963;46.052;14.544;2023-04-09T00:42:46;10.65;;;6.78;;
56181;SDS011;51963;46.052;14.544;2023-04-09T00:45:12;13.20;;;7.65;;
56181;SDS011;51963;46.052;14.544;2023-04-09T00:47:38;12.27;;;7.22;;
56181;SDS011;51963;46.052;14.544;2023-04-09T00:50:04;13.55;;;7.60;;
56181;SDS011;51963;46.052;14.544;2023-04-09T00:52:30;11.48;;;7.10;;
56181;SDS011;51963;46.052;14.544;2023-04-09T00:55:01;13.95;;;7.53;;
56181;SDS011;51963;46.052;14.544;2023-04-09T00:57:29;12.75;;;7.55;;
56181;SDS011;51963;46.052;14.544;2023-04-09T00:59:55;14.05;;;7.35;;
56181;SDS011;51963;46.052;14.544;2023-04-09T01:02:20;13.38;;;7.95;;
56181;SDS011;51963;46.052;14.544;2023-04-09T01:04:46;13.00;;;7.13;;
56181;SDS011;51963;46.052;14.544;2023-04-09T01:15:17;12.98;;;7.32;;
56181;SDS011;51963;46.052;14.544;2023-04-09T01:17:56;11.45;;;7.20;;
56181;SDS011;51963;46.052;14.544;2023-04-09T01:20:32;12.90;;;7.43;;
56181;SDS011;51963;46.052;14.544;2023-04-09T01:23:15;11.48;;;6.78;;
56181;SDS011;51963;46.052;14.544;2023-04-09T01:28:55;10.57;;;6.50;;
56181;SDS011;51963;46.052;14.544;2023-04-09T01:31:31;11.00;;;6.78;;
56181;SDS011;51963;46.052;14.544;2023-04-09T01:34:01;11.43;;;7.00;;
56181;SDS011;51963;46.052;14.544;2023-04-09T01:36:28;12.15;;;6.75;;
56181;SDS011;51963;46.052;14.544;2023-04-09T01:38:59;10.23;;;6.22;;
56181;SDS011;51963;46.052;14.544;2023-04-09T01:41:25;11.10;;;6.78;;
56181;SDS011;51963;46.052;14.544;2023-04-09T01:43:52;11.05;;;6.32;;
56181;SDS011;51963;46.052;14.544;2023-04-09T01:46:19;9.88;;;6.20;;
56181;SDS011;51963;46.052;14.544;2023-04-09T01:48:46;10.75;;;6.75;;
56181;SDS011;51963;46.052;14.544;2023-04-09T01:51:13;9.60;;;5.90;;
56181;SDS011;51963;46.052;14.544;2023-04-09T01:53:42;10.90;;;6.05;;
56181;SDS011;51963;46.052;14.544;2023-04-09T01:56:08;10.75;;;6.50;;
56181;SDS011;51963;46.052;14.544;2023-04-09T01:58:34;10.52;;;6.25;;
56181;SDS011;51963;46.052;14.544;2023-04-09T02:01:05;10.15;;;6.18;;
56181;SDS011;51963;46.052;14.544;2023-04-09T02:04:20;10.02;;;6.10;;
56181;SDS011;51963;46.052;14.544;2023-04-09T02:09:50;10.95;;;6.78;;
56181;SDS011;51963;46.052;14.544;2023-04-09T02:12:18;12.93;;;6.63;;
56181;SDS011;51963;46.052;14.544;2023-04-09T02:14:51;10.18;;;6.40;;
56181;SDS011;51963;46.052;14.544;2023-04-09T02:17:18;12.15;;;6.35;;
56181;SDS011;51963;46.052;14.544;2023-04-09T02:19:46;11.25;;;6.82;;
56181;SDS011;51963;46.052;14.544;2023-04-09T02:22:13;11.63;;;6.60;;
56181;SDS011;51963;46.052;14.544;2023-04-09T02:24:40;11.35;;;6.72;;
56181;SDS011;51963;46.052;14.544;2023-04-09T02:27:06;12.30;;;6.63;;
56181;SDS011;51963;46.052;14.544;2023-04-09T02:29:32;11.98;;;7.00;;
56181;SDS011;51963;46.052;14.544;2023-04-09T02:31:58;12.07;;;6.85;;
56181;SDS011;51963;46.052;14.544;2023-04-09T02:34:24;12.05;;;6.68;;
56181;SDS011;51963;46.052;14.544;2023-04-09T02:36:50;11.88;;;7.03;;
56181;SDS011;51963;46.052;14.544;2023-04-09T02:39:16;10.90;;;6.63;;
56181;SDS011;51963;46.052;14.544;2023-04-09T02:41:41;12.10;;;6.60;;
56181;SDS011;51963;46.052;14.544;2023-04-09T02:44:09;11.75;;;6.88;;
56181;SDS011;51963;46.052;14.544;2023-04-09T02:46:35;12.57;;;7.25;;
56181;SDS011;51963;46.052;14.544;2023-04-09T02:49:01;12.45;;;7.00;;
56181;SDS011;51963;46.052;14.544;2023-04-09T02:51:27;11.48;;;7.10;;
56181;SDS011;51963;46.052;14.544;2023-04-09T02:53:52;11.85;;;7.07;;
56181;SDS011;51963;46.052;14.544;2023-04-09T02:56:20;11.80;;;6.77;;
56181;SDS011;51963;46.052;14.544;2023-04-09T02:58:46;12.32;;;7.07;;
56181;SDS011;51963;46.052;14.544;2023-04-09T03:01:13;12.07;;;6.68;;
56181;SDS011;51963;46.052;14.544;2023-04-09T03:03:40;11.07;;;6.80;;
56181;SDS011;51963;46.052;14.544;2023-04-09T03:06:07;11.75;;;7.25;;
56181;SDS011;51963;46.052;14.544;2023-04-09T03:08:32;11.93;;;7.50;;
56181;SDS011;51963;46.052;14.544;2023-04-09T03:10:58;14.32;;;7.57;;
56181;SDS011;51963;46.052;14.544;2023-04-09T03:13:26;13.27;;;7.45;;
56181;SDS011;51963;46.052;14.544;2023-04-09T03:15:52;12.98;;;7.63;;
56181;SDS011;51963;46.052;14.544;2023-04-09T03:18:18;13.98;;;7.90;;
56181;SDS011;51963;46.052;14.544;2023-04-09T03:20:44;11.98;;;7.45;;
56181;SDS011;51963;46.052;14.544;2023-04-09T03:23:11;13.03;;;6.97;;
56181;SDS011;51963;46.052;14.544;2023-04-09T03:25:42;12.75;;;7.40;;
56181;SDS011;51963;46.052;14.544;2023-04-09T03:28:11;12.25;;;7.25;;
56181;SDS011;51963;46.052;14.544;2023-04-09T03:33:15;12.80;;;7.70;;
56181;SDS011;51963;46.052;14.544;2023-04-09T03:35:53;12.27;;;7.43;;
56181;SDS011;51963;46.052;14.544;2023-04-09T03:40:59;14.63;;;8.63;;
56181;SDS011;51963;46.052;14.544;2023-04-09T03:43:25;14.65;;;8.02;;
56181;SDS011;51963;46.052;14.544;2023-04-09T03:45:54;16.70;;;8.50;;
56181;SDS011;51963;46.052;14.544;2023-04-09T03:48:24;15.02;;;8.00;;
56181;SDS011;51963;46.052;14.544;2023-04-09T03:50:55;15.73;;;7.97;;
56181;SDS011;51963;46.052;14.544;2023-04-09T03:53:34;14.10;;;7.72;;
56181;SDS011;51963;46.052;14.544;2023-04-09T03:56:04;14.20;;;8.48;;
56181;SDS011;51963;46.052;14.544;2023-04-09T03:58:33;13.82;;;7.75;;
56181;SDS011;51963;46.052;14.544;2023-04-09T04:01:00;13.57;;;7.47;;
56181;SDS011;51963;46.052;14.544;2023-04-09T04:03:36;12.80;;;7.63;;
56181;SDS011;51963;46.052;14.544;2023-04-09T04:06:12;12.23;;;7.53;;
56181;SDS011;51963;46.052;14.544;2023-04-09T04:08:53;15.20;;;8.60;;
56181;SDS011;51963;46.052;14.544;2023-04-09T04:11:22;14.60;;;8.25;;
56181;SDS011;51963;46.052;14.544;2023-04-09T04:13:52;14.65;;;7.97;;
56181;SDS011;51963;46.052;14.544;2023-04-09T04:16:20;14.13;;;7.85;;
56181;SDS011;51963;46.052;14.544;2023-04-09T04:18:46;15.90;;;8.13;;
56181;SDS011;51963;46.052;14.544;2023-04-09T04:21:14;14.45;;;8.23;;
56181;SDS011;51963;46.052;14.544;2023-04-09T04:23:44;12.23;;;7.40;;
56181;SDS011;51963;46.052;14.544;2023-04-09T04:26:23;15.48;;;8.80;;
56181;SDS011;51963;46.052;14.544;2023-04-09T04:28:49;15.30;;;8.77;;
56181;SDS011;51963;46.052;14.544;2023-04-09T04:31:26;15.05;;;8.60;;
56181;SDS011;51963;46.052;14.544;2023-04-09T04:33:56;14.00;;;8.38;;
56181;SDS011;51963;46.052;14.544;2023-04-09T04:36:24;15.02;;;8.52;;
56181;SDS011;51963;46.052;14.544;2023-04-09T04:38:51;15.73;;;8.60;;
56181;SDS011;51963;46.052;14.544;2023-04-09T04:41:31;14.45;;;7.90;;
56181;SDS011;51963;46.052;14.544;2023-04-09T04:44:15;15.35;;;8.45;;
56181;SDS011;51963;46.052;14.544;2023-04-09T04:46:41;14.13;;;7.97;;
56181;SDS011;51963;46.052;14.544;2023-04-09T04:49:07;13.45;;;8.43;;
56181;SDS011;51963;46.052;14.544;2023-04-09T04:51:40;15.57;;;8.25;;
56181;SDS011;51963;46.052;14.544;2023-04-09T04:54:10;13.13;;;7.93;;
56181;SDS011;51963;46.052;14.544;2023-04-09T04:56:36;13.45;;;8.05;;
56181;SDS011;51963;46.052;14.544;2023-04-09T04:59:14;13.30;;;7.93;;
56181;SDS011;51963;46.052;14.544;2023-04-09T05:01:53;12.02;;;7.25;;
56181;SDS011;51963;46.052;14.544;2023-04-09T05:04:19;13.75;;;8.00;;
56181;SDS011;51963;46.052;14.544;2023-04-09T05:06:45;12.98;;;7.53;;
56181;SDS011;51963;46.052;14.544;2023-04-09T05:09:16;14.77;;;8.50;;
56181;SDS011;51963;46.052;14.544;2023-04-09T05:11:57;16.15;;;8.43;;
56181;SDS011;51963;46.052;14.544;2023-04-09T05:14:23;15.95;;;8.68;;
56181;SDS011;51963;46.052;14.544;2023-04-09T05:16:50;13.48;;;7.60;;
56181;SDS011;51963;46.052;14.544;2023-04-09T05:19:19;15.30;;;8.13;;
56181;SDS011;51963;46.052;14.544;2023-04-09T05:21:45;12.50;;;8.15;;
56181;SDS011;51963;46.052;14.544;2023-04-09T05:24:11;13.85;;;8.38;;
56181;SDS011;51963;46.052;14.544;2023-04-09T05:26:38;15.88;;;8.48;;
56181;SDS011;51963;46.052;14.544;2023-04-09T05:29:03;14.40;;;7.95;;
56181;SDS011;51963;46.052;14.544;2023-04-09T05:31:30;14.68;;;8.13;;
56181;SDS011;51963;46.052;14.544;2023-04-09T05:34:02;15.43;;;8.52;;
56181;SDS011;51963;46.052;14.544;2023-04-09T05:36:49;15.52;;;8.30;;
56181;SDS011;51963;46.052;14.544;2023-04-09T05:39:26;16.23;;;8.38;;
56181;SDS011;51963;46.052;14.544;2023-04-09T05:42:10;13.40;;;7.57;;
56181;SDS011;51963;46.052;14.544;2023-04-09T05:45:17;13.30;;;7.53;;
56181;SDS011;51963;46.052;14.544;2023-04-09T05:47:53;14.85;;;8.30;;
56181;SDS011;51963;46.052;14.544;2023-04-09T05:50:34;14.43;;;8.32;;
56181;SDS011;51963;46.052;14.544;2023-04-09T05:53:02;14.40;;;8.18;;
56181;SDS011;51963;46.052;14.544;2023-04-09T05:55:41;15.77;;;8.65;;
56181;SDS011;51963;46.052;14.544;2023-04-09T05:58:10;14.55;;;8.52;;
56181;SDS011;51963;46.052;14.544;2023-04-09T06:00:43;16.23;;;8.52;;
56181;SDS011;51963;46.052;14.544;2023-04-09T06:03:09;14.73;;;8.50;;
56181;SDS011;51963;46.052;14.544;2023-04-09T06:05:40;14.68;;;8.52;;
56181;SDS011;51963;46.052;14.544;2023-04-09T06:08:09;15.60;;;8.55;;
56181;SDS011;51963;46.052;14.544;2023-04-09T06:10:40;14.40;;;8.15;;
56181;SDS011;51963;46.052;14.544;2023-04-09T06:13:10;14.73;;;8.23;;
56181;SDS011;51963;46.052;14.544;2023-04-09T06:15:38;15.15;;;8.52;;
56181;SDS011;51963;46.052;14.544;2023-04-09T06:18:04;17.77;;;8.95;;
56181;SDS011;51963;46.052;14.544;2023-04-09T06:20:29;15.07;;;8.43;;
56181;SDS011;51963;46.052;14.544;2023-04-09T06:22:55;13.15;;;7.68;;
56181;SDS011;51963;46.052;14.544;2023-04-09T06:25:21;15.30;;;7.82;;
56181;SDS011;51963;46.052;14.544;2023-04-09T06:27:47;14.73;;;7.80;;
56181;SDS011;51963;46.052;14.544;2023-04-09T06:30:12;13.50;;;7.90;;
56181;SDS011;51963;46.052;14.544;2023-04-09T06:32:40;11.60;;;7.10;;
56181;SDS011;51963;46.052;14.544;2023-04-09T06:35:06;12.88;;;7.72;;
56181;SDS011;51963;46.052;14.544;2023-04-09T06:37:35;12.93;;;8.05;;
56181;SDS011;51963;46.052;14.544;2023-04-09T06:40:01;10.85;;;6.80;;
56181;SDS011;51963;46.052;14.544;2023-04-09T06:42:30;11.23;;;6.18;;
56181;SDS011;51963;46.052;14.544;2023-04-09T06:45:04;11.10;;;6.70;;
56181;SDS011;51963;46.052;14.544;2023-04-09T06:47:33;11.02;;;6.68;;
56181;SDS011;51963;46.052;14.544;2023-04-09T06:50:02;11.43;;;6.03;;
56181;SDS011;51963;46.052;14.544;2023-04-09T06:52:28;10.05;;;6.50;;
56181;SDS011;51963;46.052;14.544;2023-04-09T06:54:53;10.35;;;6.07;;
56181;SDS011;51963;46.052;14.544;2023-04-09T06:57:19;9.77;;;6.20;;
56181;SDS011;51963;46.052;14.544;2023-04-09T06:59:45;10.60;;;6.32;;
56181;SDS011;51963;46.052;14.544;2023-04-09T07:02:10;11.27;;;6.53;;
56181;SDS011;51963;46.052;14.544;2023-04-09T07:04:36;11.45;;;6.50;;
56181;SDS011;51963;46.052;14.544;2023-04-09T07:07:01;9.77;;;6.43;;
56181;SDS011;51963;46.052;14.544;2023-04-09T07:09:27;9.45;;;5.85;;
56181;SDS011;51963;46.052;14.544;2023-04-09T07:11:53;11.68;;;6.28;;
56181;SDS011;51963;46.052;14.544;2023-04-09T07:14:19;8.68;;;6.00;;
56181;SDS011;51963;46.052;14.544;2023-04-09T07:16:44;11.93;;;6.43;;
56181;SDS011;51963;46.052;14.544;2023-04-09T07:19:11;10.02;;;6.50;;
56181;SDS011;51963;46.052;14.544;2023-04-09T07:21:37;11.50;;;5.93;;
56181;SDS011;51963;46.052;14.544;2023-04-09T07:24:02;9.80;;;5.82;;
56181;SDS011;51963;46.052;14.544;2023-04-09T07:26:28;9.25;;;5.68;;
56181;SDS011;51963;46.052;14.544;2023-04-09T07:28:54;8.43;;;5.55;;
56181;SDS011;51963;46.052;14.544;2023-04-09T07:31:20;9.57;;;6.22;;
56181;SDS011;51963;46.052;14.544;2023-04-09T07:33:46;9.27;;;5.82;;
56181;SDS011;51963;46.052;14.544;2023-04-09T07:36:12;9.60;;;6.20;;
56181;SDS011;51963;46.052;14.544;2023-04-09T07:38:38;9.32;;;5.65;;
56181;SDS011;51963;46.052;14.544;2023-04-09T07:41:13;10.90;;;6.07;;
56181;SDS011;51963;46.052;14.544;2023-04-09T07:43:39;8.70;;;5.68;;
56181;SDS011;51963;46.052;14.544;2023-04-09T07:46:07;10.20;;;6.05;;
56181;SDS011;51963;46.052;14.544;2023-04-09T07:48:33;9.98;;;6.28;;
56181;SDS011;51963;46.052;14.544;2023-04-09T07:50:58;8.68;;;5.95;;
56181;SDS011;51963;46.052;14.544;2023-04-09T07:53:24;10.60;;;5.97;;
56181;SDS011;51963;46.052;14.544;2023-04-09T07:55:50;10.27;;;6.10;;
56181;SDS011;51963;46.052;14.544;2023-04-09T07:58:16;10.60;;;6.00;;
56181;SDS011;51963;46.052;14.544;2023-04-09T08:00:42;8.18;;;5.50;;
56181;SDS011;51963;46.052;14.544;2023-04-09T08:03:07;8.88;;;5.60;;
56181;SDS011;51963;46.052;14.544;2023-04-09T08:05:33;8.02;;;5.75;;
56181;SDS011;51963;46.052;14.544;2023-04-09T08:08:00;8.23;;;5.07;;
56181;SDS011;51963;46.052;14.544;2023-04-09T08:10:26;8.27;;;5.10;;
56181;SDS011;51963;46.052;14.544;2023-04-09T08:12:51;8.13;;;5.05;;
56181;SDS011;51963;46.052;14.544;2023-04-09T08:15:17;8.05;;;4.93;;
56181;SDS011;51963;46.052;14.544;2023-04-09T08:17:43;8.95;;;5.05;;
56181;SDS011;51963;46.052;14.544;2023-04-09T08:20:08;9.55;;;5.40;;
56181;SDS011;51963;46.052;14.544;2023-04-09T08:22:35;8.52;;;5.45;;
56181;SDS011;51963;46.052;14.544;2023-04-09T08:25:01;8.55;;;5.57;;
56181;SDS011;51963;46.052;14.544;2023-04-09T08:27:26;8.50;;;5.18;;
56181;SDS011;51963;46.052;14.544;2023-04-09T08:29:52;8.85;;;5.50;;
56181;SDS011;51963;46.052;14.544;2023-04-09T08:32:17;9.30;;;5.78;;
56181;SDS011;51963;46.052;14.544;2023-04-09T08:34:43;10.23;;;6.10;;
56181;SDS011;51963;46.052;14.544;2023-04-09T08:37:09;9.57;;;6.40;;
56181;SDS011;51963;46.052;14.544;2023-04-09T08:39:37;12.35;;;6.90;;
56181;SDS011;51963;46.052;14.544;2023-04-09T08:42:03;10.13;;;5.60;;
56181;SDS011;51963;46.052;14.544;2023-04-09T08:44:31;9.23;;;5.57;;
56181;SDS011;51963;46.052;14.544;2023-04-09T08:46:58;8.93;;;5.20;;
56181;SDS011;51963;46.052;14.544;2023-04-09T08:49:24;8.40;;;5.25;;
56181;SDS011;51963;46.052;14.544;2023-04-09T08:51:50;8.88;;;5.72;;
56181;SDS011;51963;46.052;14.544;2023-04-09T08:54:16;9.60;;;5.38;;
56181;SDS011;51963;46.052;14.544;2023-04-09T08:56:44;7.95;;;4.95;;
56181;SDS011;51963;46.052;14.544;2023-04-09T08:59:14;8.52;;;5.30;;
56181;SDS011;51963;46.052;14.544;2023-04-09T09:01:43;7.90;;;5.03;;
56181;SDS011;51963;46.052;14.544;2023-04-09T09:04:11;9.05;;;5.55;;
56181;SDS011;51963;46.052;14.544;2023-04-09T09:06:38;7.68;;;4.65;;
56181;SDS011;51963;46.052;14.544;2023-04-09T09:09:12;8.10;;;4.72;;
56181;SDS011;51963;46.052;14.544;2023-04-09T09:14:16;7.55;;;5.13;;
56181;SDS011;51963;46.052;14.544;2023-04-09T09:21:55;10.10;;;6.15;;
56181;SDS011;51963;46.052;14.544;2023-04-09T09:24:24;7.82;;;5.47;;
56181;SDS011;51963;46.052;14.544;2023-04-09T09:26:50;9.68;;;6.15;;
56181;SDS011;51963;46.052;14.544;2023-04-09T09:29:16;8.88;;;5.40;;
56181;SDS011;51963;46.052;14.544;2023-04-09T09:31:54;10.77;;;6.25;;
56181;SDS011;51963;46.052;14.544;2023-04-09T09:34:21;9.52;;;5.88;;
56181;SDS011;51963;46.052;14.544;2023-04-09T09:36:49;8.38;;;5.32;;
56181;SDS011;51963;46.052;14.544;2023-04-09T09:39:15;8.18;;;5.22;;
56181;SDS011;51963;46.052;14.544;2023-04-09T09:41:42;9.05;;;5.30;;
56181;SDS011;51963;46.052;14.544;2023-04-09T09:44:09;7.88;;;5.10;;
56181;SDS011;51963;46.052;14.544;2023-04-09T09:46:37;8.27;;;4.82;;
56181;SDS011;51963;46.052;14.544;2023-04-09T09:49:05;9.48;;;5.28;;
56181;SDS011;51963;46.052;14.544;2023-04-09T09:51:32;9.63;;;5.07;;
56181;SDS011;51963;46.052;14.544;2023-04-09T09:54:01;6.78;;;4.80;;
56181;SDS011;51963;46.052;14.544;2023-04-09T09:56:33;6.72;;;4.78;;
56181;SDS011;51963;46.052;14.544;2023-04-09T10:01:29;7.45;;;4.80;;
56181;SDS011;51963;46.052;14.544;2023-04-09T10:03:55;8.57;;;5.43;;
56181;SDS011;51963;46.052;14.544;2023-04-09T10:06:23;6.20;;;4.90;;
56181;SDS011;51963;46.052;14.544;2023-04-09T10:08:51;8.20;;;5.30;;
56181;SDS011;51963;46.052;14.544;2023-04-09T10:11:21;6.53;;;4.57;;
56181;SDS011;51963;46.052;14.544;2023-04-09T10:14:06;8.30;;;5.07;;
56181;SDS011;51963;46.052;14.544;2023-04-09T10:16:32;6.65;;;4.60;;
56181;SDS011;51963;46.052;14.544;2023-04-09T10:18:59;6.72;;;4.60;;
56181;SDS011;51963;46.052;14.544;2023-04-09T10:24:07;7.20;;;4.70;;
56181;SDS011;51963;46.052;14.544;2023-04-09T10:26:33;6.63;;;4.35;;
56181;SDS011;51963;46.052;14.544;2023-04-09T10:29:09;5.60;;;4.20;;
56181;SDS011;51963;46.052;14.544;2023-04-09T10:34:10;6.40;;;4.82;;
56181;SDS011;51963;46.052;14.544;2023-04-09T10:36:41;7.40;;;4.57;;
56181;SDS011;51963;46.052;14.544;2023-04-09T10:39:11;5.78;;;4.30;;
56181;SDS011;51963;46.052;14.544;2023-04-09T10:41:41;6.22;;;4.53;;
56181;SDS011;51963;46.052;14.544;2023-04-09T10:44:24;6.75;;;4.95;;
56181;SDS011;51963;46.052;14.544;2023-04-09T10:46:52;13.40;;;7.55;;
56181;SDS011;51963;46.052;14.544;2023-04-09T10:49:20;24.45;;;13.95;;
56181;SDS011;51963;46.052;14.544;2023-04-09T10:51:53;10.13;;;6.20;;
56181;SDS011;51963;46.052;14.544;2023-04-09T10:59:35;8.88;;;5.60;;
56181;SDS011;51963;46.052;14.544;2023-04-09T11:02:31;8.15;;;5.43;;
56181;SDS011;51963;46.052;14.544;2023-04-09T11:10:33;7.82;;;5.25;;
56181;SDS011;51963;46.052;14.544;2023-04-09T11:13:01;8.18;;;5.32;;
56181;SDS011;51963;46.052;14.544;2023-04-09T11:15:27;7.47;;;4.63;;
56181;SDS011;51963;46.052;14.544;2023-04-09T11:17:53;7.32;;;4.82;;
56181;SDS011;51963;46.052;14.544;2023-04-09T11:20:21;6.78;;;4.60;;
56181;SDS011;51963;46.052;14.544;2023-04-09T11:22:51;6.25;;;4.32;;
56181;SDS011;51963;46.052;14.544;2023-04-09T11:25:25;6.45;;;4.63;;
56181;SDS011;51963;46.052;14.544;2023-04-09T11:27:52;7.72;;;5.00;;
56181;SDS011;51963;46.052;14.544;2023-04-09T11:30:19;6.97;;;4.70;;
56181;SDS011;51963;46.052;14.544;2023-04-09T11:32:45;8.77;;;5.07;;
56181;SDS011;51963;46.052;14.544;2023-04-09T11:35:12;8.35;;;5.10;;
56181;SDS011;51963;46.052;14.544;2023-04-09T11:37:38;7.07;;;4.55;;
56181;SDS011;51963;46.052;14.544;2023-04-09T11:40:04;6.78;;;4.55;;
56181;SDS011;51963;46.052;14.544;2023-04-09T11:42:30;6.38;;;4.25;;
56181;SDS011;51963;46.052;14.544;2023-04-09T11:44:56;5.93;;;4.57;;
56181;SDS011;51963;46.052;14.544;2023-04-09T11:47:22;6.10;;;4.18;;
56181;SDS011;51963;46.052;14.544;2023-04-09T11:49:49;6.93;;;4.90;;
56181;SDS011;51963;46.052;14.544;2023-04-09T11:52:14;6.70;;;4.40;;
56181;SDS011;51963;46.052;14.544;2023-04-09T11:54:41;6.00;;;4.45;;
56181;SDS011;51963;46.052;14.544;2023-04-09T11:57:07;8.40;;;4.90;;
56181;SDS011;51963;46.052;14.544;2023-04-09T11:59:37;8.68;;;4.55;;
56181;SDS011;51963;46.052;14.544;2023-04-09T12:02:04;6.70;;;4.53;;
56181;SDS011;51963;46.052;14.544;2023-04-09T12:04:31;6.75;;;4.30;;
56181;SDS011;51963;46.052;14.544;2023-04-09T12:06:56;6.18;;;4.57;;
56181;SDS011;51963;46.052;14.544;2023-04-09T12:09:27;5.65;;;4.60;;
56181;SDS011;51963;46.052;14.544;2023-04-09T12:11:55;5.93;;;4.32;;
56181;SDS011;51963;46.052;14.544;2023-04-09T12:14:21;6.53;;;4.50;;
56181;SDS011;51963;46.052;14.544;2023-04-09T12:16:50;7.03;;;4.43;;
56181;SDS011;51963;46.052;14.544;2023-04-09T12:19:16;7.20;;;4.72;;
56181;SDS011;51963;46.052;14.544;2023-04-09T12:21:47;6.17;;;4.30;;
56181;SDS011;51963;46.052;14.544;2023-04-09T12:24:15;6.55;;;4.63;;
56181;SDS011;51963;46.052;14.544;2023-04-09T12:26:42;6.00;;;4.03;;
56181;SDS011;51963;46.052;14.544;2023-04-09T12:29:09;6.68;;;4.00;;
56181;SDS011;51963;46.052;14.544;2023-04-09T12:31:35;5.90;;;3.95;;
56181;SDS011;51963;46.052;14.544;2023-04-09T12:34:01;5.97;;;4.30;;
56181;SDS011;51963;46.052;14.544;2023-04-09T12:36:26;5.80;;;4.20;;
56181;SDS011;51963;46.052;14.544;2023-04-09T12:38:52;5.97;;;4.00;;
56181;SDS011;51963;46.052;14.544;2023-04-09T12:41:18;6.03;;;3.65;;
56181;SDS011;51963;46.052;14.544;2023-04-09T12:43:43;5.80;;;3.83;;
56181;SDS011;51963;46.052;14.544;2023-04-09T12:46:10;5.05;;;3.60;;
56181;SDS011;51963;46.052;14.544;2023-04-09T12:48:35;4.38;;;3.58;;
56181;SDS011;51963;46.052;14.544;2023-04-09T12:51:01;5.57;;;3.70;;
56181;SDS011;51963;46.052;14.544;2023-04-09T12:53:27;4.93;;;3.80;;
56181;SDS011;51963;46.052;14.544;2023-04-09T12:55:53;5.50;;;3.58;;
56181;SDS011;51963;46.052;14.544;2023-04-09T12:58:19;4.53;;;2.92;;
56181;SDS011;51963;46.052;14.544;2023-04-09T13:00:45;4.18;;;3.30;;
56181;SDS011;51963;46.052;14.544;2023-04-09T13:03:11;4.05;;;3.25;;
56181;SDS011;51963;46.052;14.544;2023-04-09T13:05:37;7.05;;;3.88;;
56181;SDS011;51963;46.052;14.544;2023-04-09T13:08:05;4.75;;;3.58;;
56181;SDS011;51963;46.052;14.544;2023-04-09T13:10:32;4.47;;;3.13;;
56181;SDS011;51963;46.052;14.544;2023-04-09T13:12:58;3.88;;;3.13;;
56181;SDS011;51963;46.052;14.544;2023-04-09T13:15:24;4.00;;;3.03;;
56181;SDS011;51963;46.052;14.544;2023-04-09T13:17:49;3.42;;;2.92;;
56181;SDS011;51963;46.052;14.544;2023-04-09T13:20:15;4.55;;;3.50;;
56181;SDS011;51963;46.052;14.544;2023-04-09T13:22:41;3.58;;;3.00;;
56181;SDS011;51963;46.052;14.544;2023-04-09T13:25:06;3.70;;;2.85;;
56181;SDS011;51963;46.052;14.544;2023-04-09T13:27:35;4.10;;;3.22;;
56181;SDS011;51963;46.052;14.544;2023-04-09T13:30:00;3.50;;;2.92;;
56181;SDS011;51963;46.052;14.544;2023-04-09T13:32:26;3.33;;;2.92;;
56181;SDS011;51963;46.052;14.544;2023-04-09T13:34:52;4.25;;;3.00;;
56181;SDS011;51963;46.052;14.544;2023-04-09T13:37:22;4.35;;;3.10;;
56181;SDS011;51963;46.052;14.544;2023-04-09T13:39:48;3.50;;;2.70;;
56181;SDS011;51963;46.052;14.544;2023-04-09T13:42:15;3.55;;;2.53;;
56181;SDS011;51963;46.052;14.544;2023-04-09T13:44:41;4.97;;;2.80;;
56181;SDS011;51963;46.052;14.544;2023-04-09T13:47:12;3.58;;;2.50;;
56181;SDS011;51963;46.052;14.544;2023-04-09T13:49:41;4.60;;;3.33;;
56181;SDS011;51963;46.052;14.544;2023-04-09T13:52:08;4.57;;;2.97;;
56181;SDS011;51963;46.052;14.544;2023-04-09T13:54:35;3.30;;;2.47;;
56181;SDS011;51963;46.052;14.544;2023-04-09T13:57:01;3.03;;;2.17;;
56181;SDS011;51963;46.052;14.544;2023-04-09T13:59:27;2.95;;;1.83;;
56181;SDS011;51963;46.052;14.544;2023-04-09T14:01:53;1.70;;;1.60;;
56181;SDS011;51963;46.052;14.544;2023-04-09T14:04:19;4.35;;;1.90;;
56181;SDS011;51963;46.052;14.544;2023-04-09T14:06:48;2.40;;;1.98;;
56181;SDS011;51963;46.052;14.544;2023-04-09T14:09:16;2.83;;;1.48;;
56181;SDS011;51963;46.052;14.544;2023-04-09T14:11:42;2.05;;;1.77;;
56181;SDS011;51963;46.052;14.544;2023-04-09T14:14:08;2.60;;;1.80;;
56181;SDS011;51963;46.052;14.544;2023-04-09T14:16:34;1.83;;;1.70;;
56181;SDS011;51963;46.052;14.544;2023-04-09T14:19:01;2.90;;;2.10;;
56181;SDS011;51963;46.052;14.544;2023-04-09T14:21:27;3.28;;;2.33;;
56181;SDS011;51963;46.052;14.544;2023-04-09T14:23:53;4.55;;;3.22;;
56181;SDS011;51963;46.052;14.544;2023-04-09T14:26:19;3.72;;;2.67;;
56181;SDS011;51963;46.052;14.544;2023-04-09T14:28:45;5.20;;;3.08;;
56181;SDS011;51963;46.052;14.544;2023-04-09T14:31:11;4.50;;;3.10;;
56181;SDS011;51963;46.052;14.544;2023-04-09T14:33:41;4.88;;;2.70;;
56181;SDS011;51963;46.052;14.544;2023-04-09T14:36:07;2.75;;;2.17;;
56181;SDS011;51963;46.052;14.544;2023-04-09T14:38:34;2.35;;;1.95;;
56181;SDS011;51963;46.052;14.544;2023-04-09T14:41:00;2.20;;;1.85;;
56181;SDS011;51963;46.052;14.544;2023-04-09T14:43:25;2.65;;;1.63;;
56181;SDS011;51963;46.052;14.544;2023-04-09T14:45:51;2.03;;;1.83;;
56181;SDS011;51963;46.052;14.544;2023-04-09T14:48:18;2.00;;;1.70;;
56181;SDS011;51963;46.052;14.544;2023-04-09T14:50:44;2.38;;;1.80;;
56181;SDS011;51963;46.052;14.544;2023-04-09T14:53:10;2.25;;;1.75;;
56181;SDS011;51963;46.052;14.544;2023-04-09T14:55:37;2.20;;;1.92;;
56181;SDS011;51963;46.052;14.544;2023-04-09T14:58:03;2.63;;;1.83;;
56181;SDS011;51963;46.052;14.544;2023-04-09T15:00:31;3.35;;;2.10;;
56181;SDS011;51963;46.052;14.544;2023-04-09T15:03:00;2.30;;;2.08;;
56181;SDS011;51963;46.052;14.544;2023-04-09T15:05:25;3.67;;;1.90;;
56181;SDS011;51963;46.052;14.544;2023-04-09T15:07:51;2.97;;;2.20;;
56181;SDS011;51963;46.052;14.544;2023-04-09T15:10:18;3.33;;;2.55;;
56181;SDS011;51963;46.052;14.544;2023-04-09T15:12:44;3.47;;;2.88;;
56181;SDS011;51963;46.052;14.544;2023-04-09T15:15:09;3.50;;;2.33;;
56181;SDS011;51963;46.052;14.544;2023-04-09T15:17:35;2.25;;;2.00;;
56181;SDS011;51963;46.052;14.544;2023-04-09T15:20:01;16.88;;;9.05;;